sensor_id;sensor_type;location;lat;lon;timestamp;pressure;altitude;pressure_sealevel;temperature;humidity
4858;BME280;58975;51.978;8.472;2023-01-19T00:00:10;98787.28;;;-0.64;100.00
4858;BME280;58975;51.978;8.472;2023-01-19T00:05:08;98788.56;;;-0.57;100.00
4858;BME280;58975;51.978;8.472;2023-01-19T00:10:05;98784.44;;;-0.47;100.00
4858;BME280;58975;51.978;8.472;2023-01-19T00:15:03;98791.19;;;-0.42;100.00
4858;BME280;58975;51.978;8.472;2023-01-19T00:19:59;98781.56;;;-0.42;100.00
4858;BME280;58975;51.978;8.472;2023-01-19T00:24:55;98794.38;;;-0.37;100.00
4858;BME280;58975;51.978;8.472;2023-01-19T00:29:52;98783.44;;;-0.44;100.00
4858;BME280;58975;51.978;8.472;2023-01-19T00:34:48;98785.41;;;-0.47;100.00
4858;BME280;58975;51.978;8.472;2023-01-19T00:39:45;98794.00;;;-0.45;100.00
4858;BME280;58975;51.978;8.472;2023-01-19T00:44:42;98800.34;;;-0.35;100.00
4858;BME280;58975;51.978;8.472;2023-01-19T00:49:38;98800.88;;;-0.30;100.00
4858;BME280;58975;51.978;8.472;2023-01-19T00:54:35;98796.78;;;-0.34;100.00
4858;BME280;58975;51.978;8.472;2023-01-19T00:59:31;98789.97;;;-0.37;100.00
4858;BME280;58975;51.978;8.472;2023-01-19T01:04:28;98777.19;;;-0.41;100.00
4858;BME280;58975;51.978;8.472;2023-01-19T01:09:25;98770.34;;;-0.58;100.00
4858;BME280;58975;51.978;8.472;2023-01-19T01:14:21;98772.88;;;-0.57;100.00
4858;BME280;58975;51.978;8.472;2023-01-19T01:19:19;98794.16;;;-0.63;100.00
4858;BME280;58975;51.978;8.472;2023-01-19T01:24:15;98806.59;;;-0.52;100.00
4858;BME280;58975;51.978;8.472;2023-01-19T01:29:12;98814.25;;;-0.49;100.00
4858;BME280;58975;51.978;8.472;2023-01-19T01:34:08;98819.78;;;-0.39;100.00
4858;BME280;58975;51.978;8.472;2023-01-19T01:39:05;98819.75;;;-0.25;100.00
4858;BME280;58975;51.978;8.472;2023-01-19T01:44:01;98817.72;;;-0.20;100.00
4858;BME280;58975;51.978;8.472;2023-01-19T01:49:12;98812.66;;;-0.09;100.00
4858;BME280;58975;51.978;8.472;2023-01-19T01:54:26;98806.50;;;-0.08;100.00
4858;BME280;58975;51.978;8.472;2023-01-19T01:59:27;98800.84;;;-0.02;100.00
4858;BME280;58975;51.978;8.472;2023-01-19T02:04:30;98807.38;;;0.05;100.00
4858;BME280;58975;51.978;8.472;2023-01-19T02:09:28;98810.47;;;0.12;100.00
4858;BME280;58975;51.978;8.472;2023-01-19T02:14:46;98796.13;;;0.17;100.00
4858;BME280;58975;51.978;8.472;2023-01-19T02:19:42;98793.63;;;0.16;100.00
4858;BME280;58975;51.978;8.472;2023-01-19T02:24:39;98795.94;;;0.20;100.00
4858;BME280;58975;51.978;8.472;2023-01-19T02:29:35;98792.19;;;0.24;100.00
4858;BME280;58975;51.978;8.472;2023-01-19T02:34:32;98785.94;;;0.27;100.00
4858;BME280;58975;51.978;8.472;2023-01-19T02:39:42;98791.06;;;0.28;100.00
4858;BME280;58975;51.978;8.472;2023-01-19T02:44:42;98792.88;;;0.40;100.00
4858;BME280;58975;51.978;8.472;2023-01-19T02:49:40;98796.63;;;0.36;100.00
4858;BME280;58975;51.978;8.472;2023-01-19T03:05:07;98781.84;;;0.35;100.00
4858;BME280;58975;51.978;8.472;2023-01-19T03:10:26;98784.31;;;0.38;100.00
4858;BME280;58975;51.978;8.472;2023-01-19T03:15:29;98785.66;;;0.44;100.00
4858;BME280;58975;51.978;8.472;2023-01-19T03:20:28;98783.16;;;0.42;100.00
4858;BME280;58975;51.978;8.472;2023-01-19T03:25:24;98787.66;;;0.40;100.00
4858;BME280;58975;51.978;8.472;2023-01-19T03:30:24;98787.34;;;0.45;100.00
4858;BME280;58975;51.978;8.472;2023-01-19T03:35:24;98785.56;;;0.45;100.00
4858;BME280;58975;51.978;8.472;2023-01-19T03:40:26;98778.44;;;0.47;100.00
4858;BME280;58975;51.978;8.472;2023-01-19T03:45:24;98783.50;;;0.51;100.00
4858;BME280;58975;51.978;8.472;2023-01-19T03:50:26;98792.38;;;0.48;100.00
4858;BME280;58975;51.978;8.472;2023-01-19T03:55:23;98777.31;;;0.52;100.00
4858;BME280;58975;51.978;8.472;2023-01-19T04:00:20;98770.94;;;0.56;100.00
4858;BME280;58975;51.978;8.472;2023-01-19T04:05:16;98776.00;;;0.59;100.00
4858;BME280;58975;51.978;8.472;2023-01-19T04:10:12;98768.13;;;0.59;100.00
4858;BME280;58975;51.978;8.472;2023-01-19T04:15:11;98772.31;;;0.61;100.00
4858;BME280;58975;51.978;8.472;2023-01-19T04:20:08;98773.69;;;0.67;100.00
4858;BME280;58975;51.978;8.472;2023-01-19T04:25:05;98768.34;;;0.68;100.00
4858;BME280;58975;51.978;8.472;2023-01-19T04:30:03;98771.91;;;0.67;100.00
4858;BME280;58975;51.978;8.472;2023-01-19T04:34:59;98772.53;;;0.71;100.00
4858;BME280;58975;51.978;8.472;2023-01-19T04:39:56;98765.53;;;0.71;100.00
4858;BME280;58975;51.978;8.472;2023-01-19T04:44:52;98761.97;;;0.72;100.00
4858;BME280;58975;51.978;8.472;2023-01-19T04:49:49;98750.25;;;0.78;100.00
4858;BME280;58975;51.978;8.472;2023-01-19T04:55:16;98762.50;;;0.77;100.00
4858;BME280;58975;51.978;8.472;2023-01-19T05:00:14;98757.06;;;0.80;100.00
4858;BME280;58975;51.978;8.472;2023-01-19T05:05:11;98756.97;;;0.82;100.00
4858;BME280;58975;51.978;8.472;2023-01-19T05:10:08;98758.75;;;0.81;100.00
4858;BME280;58975;51.978;8.472;2023-01-19T05:15:05;98765.34;;;0.87;100.00
4858;BME280;58975;51.978;8.472;2023-01-19T05:20:05;98763.47;;;0.89;100.00
4858;BME280;58975;51.978;8.472;2023-01-19T05:25:02;98752.56;;;0.95;100.00
4858;BME280;58975;51.978;8.472;2023-01-19T05:29:58;98749.72;;;0.98;100.00
4858;BME280;58975;51.978;8.472;2023-01-19T05:34:54;98749.00;;;0.96;100.00
4858;BME280;58975;51.978;8.472;2023-01-19T05:39:51;98751.63;;;0.96;100.00
4858;BME280;58975;51.978;8.472;2023-01-19T05:44:48;98747.84;;;1.00;100.00
4858;BME280;58975;51.978;8.472;2023-01-19T05:49:44;98751.94;;;1.04;100.00
4858;BME280;58975;51.978;8.472;2023-01-19T05:54:41;98743.16;;;1.05;100.00
4858;BME280;58975;51.978;8.472;2023-01-19T05:59:37;98731.38;;;0.98;100.00
4858;BME280;58975;51.978;8.472;2023-01-19T06:04:33;98737.13;;;0.90;100.00
4858;BME280;58975;51.978;8.472;2023-01-19T06:09:29;98741.13;;;0.83;100.00
4858;BME280;58975;51.978;8.472;2023-01-19T06:14:26;98748.56;;;0.77;100.00
4858;BME280;58975;51.978;8.472;2023-01-19T06:19:22;98753.78;;;0.64;100.00
4858;BME280;58975;51.978;8.472;2023-01-19T06:24:18;98748.31;;;0.55;100.00
4858;BME280;58975;51.978;8.472;2023-01-19T06:29:15;98762.84;;;0.46;100.00
4858;BME280;58975;51.978;8.472;2023-01-19T06:34:12;98758.75;;;0.42;100.00
4858;BME280;58975;51.978;8.472;2023-01-19T06:39:08;98764.16;;;0.26;100.00
4858;BME280;58975;51.978;8.472;2023-01-19T06:44:05;98759.28;;;0.20;100.00
4858;BME280;58975;51.978;8.472;2023-01-19T06:49:02;98767.19;;;0.06;100.00
4858;BME280;58975;51.978;8.472;2023-01-19T06:53:58;98777.22;;;-0.01;100.00
4858;BME280;58975;51.978;8.472;2023-01-19T06:58:55;98783.59;;;-0.05;100.00
4858;BME280;58975;51.978;8.472;2023-01-19T07:03:51;98793.69;;;-0.13;100.00
4858;BME280;58975;51.978;8.472;2023-01-19T07:08:48;98797.97;;;-0.12;100.00
4858;BME280;58975;51.978;8.472;2023-01-19T07:13:44;98800.13;;;-0.18;100.00
4858;BME280;58975;51.978;8.472;2023-01-19T07:18:47;98819.38;;;-0.19;100.00
4858;BME280;58975;51.978;8.472;2023-01-19T07:23:43;98821.25;;;-0.21;100.00
4858;BME280;58975;51.978;8.472;2023-01-19T07:28:39;98826.69;;;-0.24;100.00
4858;BME280;58975;51.978;8.472;2023-01-19T07:33:36;98839.00;;;-0.26;100.00
4858;BME280;58975;51.978;8.472;2023-01-19T07:38:33;98851.16;;;-0.25;100.00
4858;BME280;58975;51.978;8.472;2023-01-19T07:43:29;98853.97;;;-0.28;100.00
4858;BME280;58975;51.978;8.472;2023-01-19T07:48:26;98857.31;;;-0.26;100.00
4858;BME280;58975;51.978;8.472;2023-01-19T07:53:23;98870.59;;;-0.29;100.00
4858;BME280;58975;51.978;8.472;2023-01-19T07:58:19;98881.06;;;-0.29;100.00
4858;BME280;58975;51.978;8.472;2023-01-19T08:03:15;98889.09;;;-0.18;100.00
4858;BME280;58975;51.978;8.472;2023-01-19T08:08:12;98900.94;;;-0.27;100.00
4858;BME280;58975;51.978;8.472;2023-01-19T08:13:09;98911.97;;;-0.22;100.00
4858;BME280;58975;51.978;8.472;2023-01-19T08:18:05;98921.03;;;-0.27;100.00
4858;BME280;58975;51.978;8.472;2023-01-19T08:23:04;98929.72;;;-0.27;100.00
4858;BME280;58975;51.978;8.472;2023-01-19T08:28:02;98938.41;;;-0.26;100.00
4858;BME280;58975;51.978;8.472;2023-01-19T08:32:59;98942.44;;;-0.21;100.00
4858;BME280;58975;51.978;8.472;2023-01-19T08:37:59;98960.84;;;-0.22;100.00
4858;BME280;58975;51.978;8.472;2023-01-19T08:43:03;98959.16;;;-0.23;100.00
4858;BME280;58975;51.978;8.472;2023-01-19T08:48:01;98969.78;;;-0.26;100.00
4858;BME280;58975;51.978;8.472;2023-01-19T08:53:00;98977.66;;;-0.26;100.00
4858;BME280;58975;51.978;8.472;2023-01-19T08:57:57;98991.31;;;-0.21;100.00
4858;BME280;58975;51.978;8.472;2023-01-19T09:02:55;99003.22;;;-0.31;100.00
4858;BME280;58975;51.978;8.472;2023-01-19T09:07:52;99012.75;;;-0.30;100.00
4858;BME280;58975;51.978;8.472;2023-01-19T09:12:49;99015.38;;;-0.30;100.00
4858;BME280;58975;51.978;8.472;2023-01-19T09:17:45;99025.28;;;-0.35;100.00
4858;BME280;58975;51.978;8.472;2023-01-19T09:22:41;99035.81;;;-0.37;100.00
4858;BME280;58975;51.978;8.472;2023-01-19T09:27:38;99039.38;;;-0.38;100.00
4858;BME280;58975;51.978;8.472;2023-01-19T09:32:34;99043.84;;;-0.40;100.00
4858;BME280;58975;51.978;8.472;2023-01-19T09:37:31;99054.97;;;-0.36;100.00
4858;BME280;58975;51.978;8.472;2023-01-19T09:47:36;99070.41;;;-0.32;100.00
4858;BME280;58975;51.978;8.472;2023-01-19T09:52:35;99087.34;;;-0.23;100.00
4858;BME280;58975;51.978;8.472;2023-01-19T09:57:36;99096.69;;;-0.19;100.00
4858;BME280;58975;51.978;8.472;2023-01-19T10:02:43;99111.66;;;-0.21;100.00
4858;BME280;58975;51.978;8.472;2023-01-19T10:08:07;99110.81;;;-0.22;100.00
4858;BME280;58975;51.978;8.472;2023-01-19T10:18:26;99117.81;;;-0.22;100.00
4858;BME280;58975;51.978;8.472;2023-01-19T10:23:37;99133.22;;;-0.02;100.00
4858;BME280;58975;51.978;8.472;2023-01-19T10:28:35;99134.66;;;0.04;100.00
4858;BME280;58975;51.978;8.472;2023-01-19T10:33:33;99136.63;;;0.14;100.00
4858;BME280;58975;51.978;8.472;2023-01-19T10:38:32;99143.09;;;-0.07;100.00
4858;BME280;58975;51.978;8.472;2023-01-19T10:43:36;99151.38;;;-0.15;100.00
4858;BME280;58975;51.978;8.472;2023-01-19T10:48:40;99156.88;;;-0.19;100.00
4858;BME280;58975;51.978;8.472;2023-01-19T10:53:37;99154.53;;;-0.24;100.00
4858;BME280;58975;51.978;8.472;2023-01-19T10:58:34;99169.63;;;-0.13;100.00
4858;BME280;58975;51.978;8.472;2023-01-19T11:03:31;99164.72;;;-0.19;100.00
4858;BME280;58975;51.978;8.472;2023-01-19T11:08:29;99169.81;;;-0.16;100.00
4858;BME280;58975;51.978;8.472;2023-01-19T11:13:25;99171.31;;;-0.12;100.00
4858;BME280;58975;51.978;8.472;2023-01-19T11:18:30;99177.69;;;-0.02;100.00
4858;BME280;58975;51.978;8.472;2023-01-19T11:23:38;99184.09;;;0.08;100.00
4858;BME280;58975;51.978;8.472;2023-01-19T11:28:42;99190.69;;;0.15;100.00
4858;BME280;58975;51.978;8.472;2023-01-19T11:38:48;99196.72;;;0.31;100.00
4858;BME280;58975;51.978;8.472;2023-01-19T11:43:47;99201.78;;;0.34;100.00
4858;BME280;58975;51.978;8.472;2023-01-19T11:48:53;99198.06;;;0.38;100.00
4858;BME280;58975;51.978;8.472;2023-01-19T11:53:53;99202.25;;;0.41;100.00
4858;BME280;58975;51.978;8.472;2023-01-19T11:58:49;99208.53;;;0.38;100.00
4858;BME280;58975;51.978;8.472;2023-01-19T12:04:06;99208.34;;;0.41;100.00
4858;BME280;58975;51.978;8.472;2023-01-19T12:09:16;99219.56;;;0.43;100.00
4858;BME280;58975;51.978;8.472;2023-01-19T12:14:28;99218.44;;;0.47;100.00
4858;BME280;58975;51.978;8.472;2023-01-19T12:19:49;99222.44;;;0.55;100.00
4858;BME280;58975;51.978;8.472;2023-01-19T12:24:59;99222.97;;;0.60;100.00
4858;BME280;58975;51.978;8.472;2023-01-19T12:29:58;99226.00;;;0.68;100.00
4858;BME280;58975;51.978;8.472;2023-01-19T12:34:54;99217.88;;;0.72;100.00
4858;BME280;58975;51.978;8.472;2023-01-19T12:39:51;99223.97;;;0.87;100.00
4858;BME280;58975;51.978;8.472;2023-01-19T12:45:12;99225.31;;;1.08;100.00
4858;BME280;58975;51.978;8.472;2023-01-19T12:50:16;99223.16;;;1.01;100.00
4858;BME280;58975;51.978;8.472;2023-01-19T12:55:21;99228.88;;;1.07;100.00
4858;BME280;58975;51.978;8.472;2023-01-19T13:10:53;99226.81;;;1.12;100.00
4858;BME280;58975;51.978;8.472;2023-01-19T13:15:51;99234.28;;;1.04;100.00
4858;BME280;58975;51.978;8.472;2023-01-19T13:21:02;99228.66;;;1.10;100.00
4858;BME280;58975;51.978;8.472;2023-01-19T13:26:05;99226.91;;;1.25;100.00
4858;BME280;58975;51.978;8.472;2023-01-19T13:31:02;99219.31;;;1.20;100.00
4858;BME280;58975;51.978;8.472;2023-01-19T13:35:59;99222.97;;;1.18;100.00
4858;BME280;58975;51.978;8.472;2023-01-19T13:40:58;99231.41;;;1.09;100.00
4858;BME280;58975;51.978;8.472;2023-01-19T13:45:57;99240.47;;;1.03;100.00
4858;BME280;58975;51.978;8.472;2023-01-19T13:51:03;99229.25;;;1.01;100.00
4858;BME280;58975;51.978;8.472;2023-01-19T13:56:08;99250.22;;;1.01;100.00
4858;BME280;58975;51.978;8.472;2023-01-19T14:01:05;99253.09;;;0.97;100.00
4858;BME280;58975;51.978;8.472;2023-01-19T14:06:02;99245.31;;;0.95;100.00
4858;BME280;58975;51.978;8.472;2023-01-19T14:11:00;99257.50;;;0.96;100.00
4858;BME280;58975;51.978;8.472;2023-01-19T14:16:06;99263.84;;;0.92;100.00
4858;BME280;58975;51.978;8.472;2023-01-19T14:21:05;99268.19;;;0.93;100.00
4858;BME280;58975;51.978;8.472;2023-01-19T14:26:03;99270.69;;;0.94;100.00
4858;BME280;58975;51.978;8.472;2023-01-19T14:41:26;99280.06;;;0.99;100.00
4858;BME280;58975;51.978;8.472;2023-01-19T14:46:23;99295.72;;;1.00;100.00
4858;BME280;58975;51.978;8.472;2023-01-19T14:51:22;99291.22;;;1.02;100.00
4858;BME280;58975;51.978;8.472;2023-01-19T14:56:27;99295.25;;;1.08;100.00
4858;BME280;58975;51.978;8.472;2023-01-19T15:01:24;99290.59;;;1.13;100.00
4858;BME280;58975;51.978;8.472;2023-01-19T15:06:24;99296.28;;;1.05;100.00
4858;BME280;58975;51.978;8.472;2023-01-19T15:11:41;99299.91;;;1.03;100.00
4858;BME280;58975;51.978;8.472;2023-01-19T15:16:38;99306.84;;;1.04;100.00
4858;BME280;58975;51.978;8.472;2023-01-19T15:21:35;99305.53;;;0.97;100.00
4858;BME280;58975;51.978;8.472;2023-01-19T15:26:32;99309.75;;;0.99;100.00
4858;BME280;58975;51.978;8.472;2023-01-19T15:31:29;99313.66;;;0.92;100.00
4858;BME280;58975;51.978;8.472;2023-01-19T15:36:25;99317.22;;;0.91;100.00
4858;BME280;58975;51.978;8.472;2023-01-19T15:41:27;99327.69;;;0.91;100.00
4858;BME280;58975;51.978;8.472;2023-01-19T15:46:25;99324.34;;;0.89;100.00
4858;BME280;58975;51.978;8.472;2023-01-19T15:51:23;99323.22;;;0.93;100.00
4858;BME280;58975;51.978;8.472;2023-01-19T16:01:21;99330.56;;;0.86;100.00
4858;BME280;58975;51.978;8.472;2023-01-19T16:06:18;99334.81;;;0.89;100.00
4858;BME280;58975;51.978;8.472;2023-01-19T16:11:14;99329.91;;;0.83;100.00
4858;BME280;58975;51.978;8.472;2023-01-19T16:16:16;99343.47;;;0.75;100.00
4858;BME280;58975;51.978;8.472;2023-01-19T16:21:13;99348.97;;;0.71;100.00
4858;BME280;58975;51.978;8.472;2023-01-19T16:26:30;99351.75;;;0.68;100.00
4858;BME280;58975;51.978;8.472;2023-01-19T16:31:28;99358.22;;;0.62;100.00
4858;BME280;58975;51.978;8.472;2023-01-19T16:36:27;99373.81;;;0.64;100.00
4858;BME280;58975;51.978;8.472;2023-01-19T16:41:24;99371.38;;;0.61;100.00
4858;BME280;58975;51.978;8.472;2023-01-19T16:46:26;99375.09;;;0.57;100.00
4858;BME280;58975;51.978;8.472;2023-01-19T16:51:23;99386.19;;;0.62;100.00
4858;BME280;58975;51.978;8.472;2023-01-19T16:56:19;99383.72;;;0.74;100.00
4858;BME280;58975;51.978;8.472;2023-01-19T17:01:17;99400.13;;;0.78;100.00
4858;BME280;58975;51.978;8.472;2023-01-19T17:06:18;99402.38;;;0.68;100.00
4858;BME280;58975;51.978;8.472;2023-01-19T17:11:21;99394.88;;;0.62;100.00
4858;BME280;58975;51.978;8.472;2023-01-19T17:16:17;99408.41;;;0.55;100.00
4858;BME280;58975;51.978;8.472;2023-01-19T17:21:15;99413.06;;;0.50;100.00
4858;BME280;58975;51.978;8.472;2023-01-19T17:26:13;99411.72;;;0.42;100.00
4858;BME280;58975;51.978;8.472;2023-01-19T17:31:16;99421.22;;;0.43;100.00
4858;BME280;58975;51.978;8.472;2023-01-19T17:36:16;99431.72;;;0.43;100.00
4858;BME280;58975;51.978;8.472;2023-01-19T17:41:18;99436.19;;;0.41;100.00
4858;BME280;58975;51.978;8.472;2023-01-19T17:46:16;99436.38;;;0.38;100.00
4858;BME280;58975;51.978;8.472;2023-01-19T17:51:12;99437.78;;;0.44;100.00
4858;BME280;58975;51.978;8.472;2023-01-19T17:56:13;99443.63;;;0.33;100.00
4858;BME280;58975;51.978;8.472;2023-01-19T18:01:14;99440.66;;;0.39;100.00
4858;BME280;58975;51.978;8.472;2023-01-19T18:06:10;99451.81;;;0.27;100.00
4858;BME280;58975;51.978;8.472;2023-01-19T18:11:08;99449.34;;;0.24;100.00
4858;BME280;58975;51.978;8.472;2023-01-19T18:16:08;99460.88;;;0.37;100.00
4858;BME280;58975;51.978;8.472;2023-01-19T18:21:07;99453.19;;;0.34;100.00
4858;BME280;58975;51.978;8.472;2023-01-19T18:26:07;99461.88;;;0.35;100.00
4858;BME280;58975;51.978;8.472;2023-01-19T18:31:08;99461.78;;;0.36;100.00
4858;BME280;58975;51.978;8.472;2023-01-19T18:36:05;99466.38;;;0.48;100.00
4858;BME280;58975;51.978;8.472;2023-01-19T18:41:04;99471.28;;;0.55;100.00
4858;BME280;58975;51.978;8.472;2023-01-19T18:46:01;99459.59;;;0.60;100.00
4858;BME280;58975;51.978;8.472;2023-01-19T18:50:58;99467.22;;;0.49;100.00
4858;BME280;58975;51.978;8.472;2023-01-19T18:55:59;99463.31;;;0.56;100.00
4858;BME280;58975;51.978;8.472;2023-01-19T19:00:58;99469.59;;;0.54;100.00
4858;BME280;58975;51.978;8.472;2023-01-19T19:05:55;99475.66;;;0.38;100.00
4858;BME280;58975;51.978;8.472;2023-01-19T19:10:51;99476.06;;;0.31;100.00
4858;BME280;58975;51.978;8.472;2023-01-19T19:15:47;99471.25;;;0.23;100.00
4858;BME280;58975;51.978;8.472;2023-01-19T19:20:44;99487.78;;;0.24;100.00
4858;BME280;58975;51.978;8.472;2023-01-19T19:25:40;99491.25;;;0.24;100.00
4858;BME280;58975;51.978;8.472;2023-01-19T19:30:37;99496.56;;;0.23;100.00
4858;BME280;58975;51.978;8.472;2023-01-19T19:35:34;99490.78;;;0.16;100.00
4858;BME280;58975;51.978;8.472;2023-01-19T19:40:30;99497.06;;;0.14;100.00
4858;BME280;58975;51.978;8.472;2023-01-19T19:45:26;99503.38;;;0.10;100.00
4858;BME280;58975;51.978;8.472;2023-01-19T19:50:23;99511.38;;;0.07;100.00
4858;BME280;58975;51.978;8.472;2023-01-19T19:55:19;99520.16;;;0.06;100.00
4858;BME280;58975;51.978;8.472;2023-01-19T20:00:16;99519.41;;;0.04;100.00
4858;BME280;58975;51.978;8.472;2023-01-19T20:05:12;99524.72;;;0.02;100.00
4858;BME280;58975;51.978;8.472;2023-01-19T20:10:09;99537.88;;;0.00;100.00
4858;BME280;58975;51.978;8.472;2023-01-19T20:15:06;99537.72;;;0.04;100.00
4858;BME280;58975;51.978;8.472;2023-01-19T20:20:02;99543.88;;;0.03;100.00
4858;BME280;58975;51.978;8.472;2023-01-19T20:24:59;99552.81;;;-0.02;100.00
4858;BME280;58975;51.978;8.472;2023-01-19T20:29:55;99559.75;;;-0.01;100.00
4858;BME280;58975;51.978;8.472;2023-01-19T20:34:53;99555.28;;;0.02;100.00
4858;BME280;58975;51.978;8.472;2023-01-19T20:39:50;99560.50;;;0.02;100.00
4858;BME280;58975;51.978;8.472;2023-01-19T20:44:46;99557.97;;;0.00;100.00
4858;BME280;58975;51.978;8.472;2023-01-19T20:49:42;99567.72;;;-0.04;100.00
4858;BME280;58975;51.978;8.472;2023-01-19T20:54:39;99566.59;;;0.02;100.00
4858;BME280;58975;51.978;8.472;2023-01-19T20:59:35;99578.19;;;-0.04;100.00
4858;BME280;58975;51.978;8.472;2023-01-19T21:04:33;99571.38;;;-0.06;100.00
4858;BME280;58975;51.978;8.472;2023-01-19T21:09:29;99582.00;;;-0.09;100.00
4858;BME280;58975;51.978;8.472;2023-01-19T21:14:26;99590.91;;;-0.13;100.00
4858;BME280;58975;51.978;8.472;2023-01-19T21:19:23;99598.06;;;-0.17;100.00
4858;BME280;58975;51.978;8.472;2023-01-19T21:24:19;99595.69;;;-0.21;100.00
4858;BME280;58975;51.978;8.472;2023-01-19T21:29:16;99604.44;;;-0.22;100.00
4858;BME280;58975;51.978;8.472;2023-01-19T21:34:13;99607.97;;;-0.23;100.00
4858;BME280;58975;51.978;8.472;2023-01-19T21:39:09;99614.06;;;-0.23;100.00
4858;BME280;58975;51.978;8.472;2023-01-19T21:44:06;99620.09;;;-0.21;100.00
4858;BME280;58975;51.978;8.472;2023-01-19T21:49:04;99626.22;;;-0.22;100.00
4858;BME280;58975;51.978;8.472;2023-01-19T21:54:03;99635.84;;;-0.22;100.00
4858;BME280;58975;51.978;8.472;2023-01-19T21:59:00;99635.94;;;-0.24;100.00
4858;BME280;58975;51.978;8.472;2023-01-19T22:03:59;99639.84;;;-0.15;100.00
4858;BME280;58975;51.978;8.472;2023-01-19T22:08:56;99642.63;;;-0.18;100.00
4858;BME280;58975;51.978;8.472;2023-01-19T22:13:53;99647.09;;;-0.20;100.00
4858;BME280;58975;51.978;8.472;2023-01-19T22:18:52;99648.50;;;-0.13;100.00
4858;BME280;58975;51.978;8.472;2023-01-19T22:23:51;99656.34;;;-0.13;100.00
4858;BME280;58975;51.978;8.472;2023-01-19T22:28:52;99660.72;;;-0.14;100.00
4858;BME280;58975;51.978;8.472;2023-01-19T22:33:49;99658.66;;;-0.07;100.00
4858;BME280;58975;51.978;8.472;2023-01-19T22:39:06;99654.56;;;0.05;100.00
4858;BME280;58975;51.978;8.472;2023-01-19T22:44:09;99666.75;;;0.06;100.00
4858;BME280;58975;51.978;8.472;2023-01-19T22:49:09;99670.44;;;0.02;100.00
4858;BME280;58975;51.978;8.472;2023-01-19T22:54:08;99683.31;;;0.06;100.00
4858;BME280;58975;51.978;8.472;2023-01-19T22:59:05;99670.22;;;0.06;100.00
4858;BME280;58975;51.978;8.472;2023-01-19T23:04:03;99674.06;;;0.16;100.00
4858;BME280;58975;51.978;8.472;2023-01-19T23:09:02;99677.91;;;0.09;100.00
4858;BME280;58975;51.978;8.472;2023-01-19T23:13:59;99678.50;;;-0.03;100.00
4858;BME280;58975;51.978;8.472;2023-01-19T23:18:57;99683.06;;;-0.07;100.00
4858;BME280;58975;51.978;8.472;2023-01-19T23:23:55;99686.03;;;-0.14;100.00
4858;BME280;58975;51.978;8.472;2023-01-19T23:28:57;99696.94;;;-0.23;100.00
4858;BME280;58975;51.978;8.472;2023-01-19T23:33:56;99692.00;;;-0.29;100.00
4858;BME280;58975;51.978;8.472;2023-01-19T23:38:55;99697.19;;;-0.28;100.00
4858;BME280;58975;51.978;8.472;2023-01-19T23:43:51;99700.72;;;-0.29;100.00
4858;BME280;58975;51.978;8.472;2023-01-19T23:48:48;99703.38;;;-0.30;100.00
4858;BME280;58975;51.978;8.472;2023-01-19T23:53:45;99706.84;;;-0.30;100.00
4858;BME280;58975;51.978;8.472;2023-01-19T23:58:42;99709.69;;;-0.34;100.00
